sensor_id;sensor_type;location;lat;lon;timestamp;P1;durP1;ratioP1;P2;durP2;ratioP2
75386;SDS011;63966;47.914;22.266;2023-12-20T00:00:45;25.73;;;11.48;;
75386;SDS011;63966;47.914;22.266;2023-12-20T00:03:50;21.52;;;10.32;;
75386;SDS011;63966;47.914;22.266;2023-12-20T00:06:54;24.87;;;10.90;;
75386;SDS011;63966;47.914;22.266;2023-12-20T00:09:57;22.48;;;10.93;;
75386;SDS011;63966;47.914;22.266;2023-12-20T00:13:01;26.92;;;12.18;;
75386;SDS011;63966;47.914;22.266;2023-12-20T00:16:04;22.05;;;9.52;;
75386;SDS011;63966;47.914;22.266;2023-12-20T00:19:08;21.10;;;9.47;;
75386;SDS011;63966;47.914;22.266;2023-12-20T00:22:11;27.30;;;10.75;;
75386;SDS011;63966;47.914;22.266;2023-12-20T00:25:15;25.40;;;10.27;;
75386;SDS011;63966;47.914;22.266;2023-12-20T00:28:19;21.17;;;10.15;;
75386;SDS011;63966;47.914;22.266;2023-12-20T00:31:22;26.10;;;10.15;;
75386;SDS011;63966;47.914;22.266;2023-12-20T00:34:25;21.77;;;9.68;;
75386;SDS011;63966;47.914;22.266;2023-12-20T00:37:29;23.98;;;11.02;;
75386;SDS011;63966;47.914;22.266;2023-12-20T00:40:32;19.53;;;9.33;;
75386;SDS011;63966;47.914;22.266;2023-12-20T00:43:36;21.60;;;9.43;;
75386;SDS011;63966;47.914;22.266;2023-12-20T00:46:39;22.02;;;10.15;;
75386;SDS011;63966;47.914;22.266;2023-12-20T00:49:43;24.85;;;9.98;;
75386;SDS011;63966;47.914;22.266;2023-12-20T00:52:47;23.20;;;10.33;;
75386;SDS011;63966;47.914;22.266;2023-12-20T00:55:50;23.13;;;10.20;;
75386;SDS011;63966;47.914;22.266;2023-12-20T00:58:55;24.10;;;10.73;;
75386;SDS011;63966;47.914;22.266;2023-12-20T01:01:58;20.77;;;9.35;;
75386;SDS011;63966;47.914;22.266;2023-12-20T01:05:02;26.87;;;10.33;;
75386;SDS011;63966;47.914;22.266;2023-12-20T01:08:06;24.80;;;10.30;;
75386;SDS011;63966;47.914;22.266;2023-12-20T01:11:09;24.42;;;10.25;;
75386;SDS011;63966;47.914;22.266;2023-12-20T01:14:12;22.90;;;9.90;;
75386;SDS011;63966;47.914;22.266;2023-12-20T01:17:16;24.48;;;10.68;;
75386;SDS011;63966;47.914;22.266;2023-12-20T01:20:19;26.27;;;10.45;;
75386;SDS011;63966;47.914;22.266;2023-12-20T01:23:23;26.83;;;10.60;;
75386;SDS011;63966;47.914;22.266;2023-12-20T01:26:26;28.27;;;10.60;;
75386;SDS011;63966;47.914;22.266;2023-12-20T01:29:30;23.15;;;10.60;;
75386;SDS011;63966;47.914;22.266;2023-12-20T01:32:33;25.75;;;10.63;;
75386;SDS011;63966;47.914;22.266;2023-12-20T01:35:36;19.93;;;9.40;;
75386;SDS011;63966;47.914;22.266;2023-12-20T01:38:41;26.10;;;9.70;;
75386;SDS011;63966;47.914;22.266;2023-12-20T01:41:44;22.10;;;9.60;;
75386;SDS011;63966;47.914;22.266;2023-12-20T01:44:48;21.88;;;9.48;;
75386;SDS011;63966;47.914;22.266;2023-12-20T01:47:51;21.13;;;9.95;;
75386;SDS011;63966;47.914;22.266;2023-12-20T01:50:56;21.30;;;9.02;;
75386;SDS011;63966;47.914;22.266;2023-12-20T01:54:00;20.67;;;8.98;;
75386;SDS011;63966;47.914;22.266;2023-12-20T01:57:05;20.50;;;9.63;;
75386;SDS011;63966;47.914;22.266;2023-12-20T02:00:10;23.00;;;9.48;;
75386;SDS011;63966;47.914;22.266;2023-12-20T02:03:14;20.67;;;9.02;;
75386;SDS011;63966;47.914;22.266;2023-12-20T02:06:19;20.98;;;9.38;;
75386;SDS011;63966;47.914;22.266;2023-12-20T02:09:25;20.48;;;8.90;;
75386;SDS011;63966;47.914;22.266;2023-12-20T02:12:30;20.13;;;8.90;;
75386;SDS011;63966;47.914;22.266;2023-12-20T02:15:33;27.10;;;10.75;;
75386;SDS011;63966;47.914;22.266;2023-12-20T02:18:39;22.10;;;9.30;;
75386;SDS011;63966;47.914;22.266;2023-12-20T02:21:44;20.23;;;9.15;;
75386;SDS011;63966;47.914;22.266;2023-12-20T02:24:48;23.73;;;10.48;;
75386;SDS011;63966;47.914;22.266;2023-12-20T02:27:51;26.65;;;10.82;;
75386;SDS011;63966;47.914;22.266;2023-12-20T02:30:55;25.07;;;9.73;;
75386;SDS011;63966;47.914;22.266;2023-12-20T02:33:59;25.75;;;9.73;;
75386;SDS011;63966;47.914;22.266;2023-12-20T02:37:03;30.20;;;12.15;;
75386;SDS011;63966;47.914;22.266;2023-12-20T02:40:06;28.08;;;12.38;;
75386;SDS011;63966;47.914;22.266;2023-12-20T02:43:10;29.90;;;11.43;;
75386;SDS011;63966;47.914;22.266;2023-12-20T02:46:14;26.30;;;10.95;;
75386;SDS011;63966;47.914;22.266;2023-12-20T02:49:20;29.50;;;14.13;;
75386;SDS011;63966;47.914;22.266;2023-12-20T02:52:24;23.85;;;11.10;;
75386;SDS011;63966;47.914;22.266;2023-12-20T02:55:28;27.27;;;11.73;;
75386;SDS011;63966;47.914;22.266;2023-12-20T02:58:31;40.33;;;21.77;;
75386;SDS011;63966;47.914;22.266;2023-12-20T03:01:35;34.10;;;14.73;;
75386;SDS011;63966;47.914;22.266;2023-12-20T03:04:44;29.57;;;13.43;;
75386;SDS011;63966;47.914;22.266;2023-12-20T03:07:47;29.50;;;13.63;;
75386;SDS011;63966;47.914;22.266;2023-12-20T03:10:51;26.23;;;12.73;;
75386;SDS011;63966;47.914;22.266;2023-12-20T03:13:56;24.27;;;11.60;;
75386;SDS011;63966;47.914;22.266;2023-12-20T03:16:59;29.43;;;11.07;;
75386;SDS011;63966;47.914;22.266;2023-12-20T03:20:03;29.52;;;12.00;;
75386;SDS011;63966;47.914;22.266;2023-12-20T03:23:09;27.08;;;11.43;;
75386;SDS011;63966;47.914;22.266;2023-12-20T03:26:13;27.92;;;11.65;;
75386;SDS011;63966;47.914;22.266;2023-12-20T03:29:16;24.97;;;10.40;;
75386;SDS011;63966;47.914;22.266;2023-12-20T03:32:19;23.98;;;10.05;;
75386;SDS011;63966;47.914;22.266;2023-12-20T03:35:23;30.48;;;11.70;;
75386;SDS011;63966;47.914;22.266;2023-12-20T03:38:26;29.92;;;12.25;;
75386;SDS011;63966;47.914;22.266;2023-12-20T03:41:30;33.78;;;11.90;;
75386;SDS011;63966;47.914;22.266;2023-12-20T03:44:33;30.02;;;11.27;;
75386;SDS011;63966;47.914;22.266;2023-12-20T03:47:37;28.33;;;10.65;;
75386;SDS011;63966;47.914;22.266;2023-12-20T03:50:40;24.60;;;10.63;;
75386;SDS011;63966;47.914;22.266;2023-12-20T03:53:44;20.05;;;9.48;;
75386;SDS011;63966;47.914;22.266;2023-12-20T03:56:47;25.98;;;11.18;;
75386;SDS011;63966;47.914;22.266;2023-12-20T03:59:50;26.23;;;10.57;;
75386;SDS011;63966;47.914;22.266;2023-12-20T04:02:54;27.43;;;9.53;;
75386;SDS011;63966;47.914;22.266;2023-12-20T04:05:57;24.55;;;10.18;;
75386;SDS011;63966;47.914;22.266;2023-12-20T04:09:01;24.17;;;10.07;;
75386;SDS011;63966;47.914;22.266;2023-12-20T04:12:04;24.73;;;10.20;;
75386;SDS011;63966;47.914;22.266;2023-12-20T04:15:08;24.35;;;9.68;;
75386;SDS011;63966;47.914;22.266;2023-12-20T04:18:14;23.67;;;10.50;;
75386;SDS011;63966;47.914;22.266;2023-12-20T04:21:17;48.83;;;17.38;;
75386;SDS011;63966;47.914;22.266;2023-12-20T04:24:21;47.27;;;17.53;;
75386;SDS011;63966;47.914;22.266;2023-12-20T04:27:25;38.60;;;13.88;;
75386;SDS011;63966;47.914;22.266;2023-12-20T04:30:29;29.95;;;11.85;;
75386;SDS011;63966;47.914;22.266;2023-12-20T04:33:32;24.58;;;9.88;;
75386;SDS011;63966;47.914;22.266;2023-12-20T04:36:36;24.85;;;8.52;;
75386;SDS011;63966;47.914;22.266;2023-12-20T04:39:40;26.67;;;10.40;;
75386;SDS011;63966;47.914;22.266;2023-12-20T04:42:44;26.83;;;10.85;;
75386;SDS011;63966;47.914;22.266;2023-12-20T04:45:48;24.87;;;9.20;;
75386;SDS011;63966;47.914;22.266;2023-12-20T04:48:51;21.00;;;8.93;;
75386;SDS011;63966;47.914;22.266;2023-12-20T04:51:55;23.90;;;9.50;;
75386;SDS011;63966;47.914;22.266;2023-12-20T04:54:59;21.60;;;8.87;;
75386;SDS011;63966;47.914;22.266;2023-12-20T04:58:02;25.70;;;8.88;;
75386;SDS011;63966;47.914;22.266;2023-12-20T05:01:08;21.70;;;9.00;;
75386;SDS011;63966;47.914;22.266;2023-12-20T05:04:12;20.23;;;8.77;;
75386;SDS011;63966;47.914;22.266;2023-12-20T05:07:16;27.23;;;9.98;;
75386;SDS011;63966;47.914;22.266;2023-12-20T05:10:19;22.48;;;7.85;;
75386;SDS011;63966;47.914;22.266;2023-12-20T05:13:23;19.83;;;8.80;;
75386;SDS011;63966;47.914;22.266;2023-12-20T05:16:39;23.90;;;8.77;;
75386;SDS011;63966;47.914;22.266;2023-12-20T05:19:43;19.92;;;8.20;;
75386;SDS011;63966;47.914;22.266;2023-12-20T05:22:46;23.50;;;8.95;;
75386;SDS011;63966;47.914;22.266;2023-12-20T05:25:50;21.27;;;8.38;;
75386;SDS011;63966;47.914;22.266;2023-12-20T05:28:54;23.60;;;9.43;;
75386;SDS011;63966;47.914;22.266;2023-12-20T05:31:58;50.70;;;16.08;;
75386;SDS011;63966;47.914;22.266;2023-12-20T05:35:02;76.13;;;27.90;;
75386;SDS011;63966;47.914;22.266;2023-12-20T05:38:06;126.80;;;51.33;;
75386;SDS011;63966;47.914;22.266;2023-12-20T05:41:09;55.63;;;20.88;;
75386;SDS011;63966;47.914;22.266;2023-12-20T05:44:13;54.72;;;20.60;;
75386;SDS011;63966;47.914;22.266;2023-12-20T05:47:17;38.67;;;16.67;;
75386;SDS011;63966;47.914;22.266;2023-12-20T05:50:20;40.13;;;15.97;;
75386;SDS011;63966;47.914;22.266;2023-12-20T05:53:24;32.58;;;12.43;;
75386;SDS011;63966;47.914;22.266;2023-12-20T05:56:28;43.45;;;15.77;;
75386;SDS011;63966;47.914;22.266;2023-12-20T05:59:31;49.83;;;21.13;;
75386;SDS011;63966;47.914;22.266;2023-12-20T06:02:35;46.25;;;16.95;;
75386;SDS011;63966;47.914;22.266;2023-12-20T06:05:42;52.05;;;19.65;;
75386;SDS011;63966;47.914;22.266;2023-12-20T06:08:45;48.90;;;19.73;;
75386;SDS011;63966;47.914;22.266;2023-12-20T06:11:49;51.40;;;19.07;;
75386;SDS011;63966;47.914;22.266;2023-12-20T06:14:53;51.00;;;18.77;;
75386;SDS011;63966;47.914;22.266;2023-12-20T06:17:57;59.88;;;21.13;;
75386;SDS011;63966;47.914;22.266;2023-12-20T06:21:01;55.73;;;20.80;;
75386;SDS011;63966;47.914;22.266;2023-12-20T06:24:04;35.47;;;16.92;;
75386;SDS011;63966;47.914;22.266;2023-12-20T06:27:08;46.20;;;20.33;;
75386;SDS011;63966;47.914;22.266;2023-12-20T06:30:11;33.33;;;14.75;;
75386;SDS011;63966;47.914;22.266;2023-12-20T06:33:15;95.07;;;31.55;;
75386;SDS011;63966;47.914;22.266;2023-12-20T06:36:21;62.22;;;24.35;;
75386;SDS011;63966;47.914;22.266;2023-12-20T06:39:24;64.68;;;23.90;;
75386;SDS011;63966;47.914;22.266;2023-12-20T06:42:27;55.10;;;21.43;;
75386;SDS011;63966;47.914;22.266;2023-12-20T06:45:34;47.25;;;19.75;;
75386;SDS011;63966;47.914;22.266;2023-12-20T06:48:37;41.03;;;17.67;;
75386;SDS011;63966;47.914;22.266;2023-12-20T06:51:41;45.20;;;16.27;;
75386;SDS011;63966;47.914;22.266;2023-12-20T06:54:45;59.67;;;20.85;;
75386;SDS011;63966;47.914;22.266;2023-12-20T06:57:49;47.92;;;18.38;;
75386;SDS011;63966;47.914;22.266;2023-12-20T07:00:52;40.05;;;17.33;;
75386;SDS011;63966;47.914;22.266;2023-12-20T07:03:56;50.60;;;22.33;;
75386;SDS011;63966;47.914;22.266;2023-12-20T07:07:00;54.28;;;19.90;;
75386;SDS011;63966;47.914;22.266;2023-12-20T07:10:04;25.27;;;11.35;;
75386;SDS011;63966;47.914;22.266;2023-12-20T07:13:10;25.47;;;11.37;;
75386;SDS011;63966;47.914;22.266;2023-12-20T07:16:16;31.40;;;13.05;;
75386;SDS011;63966;47.914;22.266;2023-12-20T07:19:20;28.55;;;11.70;;
75386;SDS011;63966;47.914;22.266;2023-12-20T07:22:24;23.20;;;11.13;;
75386;SDS011;63966;47.914;22.266;2023-12-20T07:25:29;25.40;;;10.82;;
75386;SDS011;63966;47.914;22.266;2023-12-20T07:28:35;21.02;;;8.48;;
75386;SDS011;63966;47.914;22.266;2023-12-20T07:31:39;23.67;;;9.13;;
75386;SDS011;63966;47.914;22.266;2023-12-20T07:34:43;20.60;;;9.00;;
75386;SDS011;63966;47.914;22.266;2023-12-20T07:37:48;18.33;;;9.15;;
75386;SDS011;63966;47.914;22.266;2023-12-20T07:40:51;18.63;;;8.75;;
75386;SDS011;63966;47.914;22.266;2023-12-20T07:43:55;18.63;;;8.45;;
75386;SDS011;63966;47.914;22.266;2023-12-20T07:46:59;30.27;;;8.70;;
75386;SDS011;63966;47.914;22.266;2023-12-20T07:50:03;21.65;;;10.02;;
75386;SDS011;63966;47.914;22.266;2023-12-20T07:53:07;17.58;;;9.07;;
75386;SDS011;63966;47.914;22.266;2023-12-20T07:56:17;23.92;;;10.18;;
75386;SDS011;63966;47.914;22.266;2023-12-20T07:59:22;21.53;;;8.93;;
75386;SDS011;63966;47.914;22.266;2023-12-20T08:02:34;20.67;;;9.18;;
75386;SDS011;63966;47.914;22.266;2023-12-20T08:05:38;20.20;;;8.70;;
75386;SDS011;63966;47.914;22.266;2023-12-20T08:08:44;20.98;;;8.40;;
75386;SDS011;63966;47.914;22.266;2023-12-20T08:11:56;21.73;;;9.13;;
75386;SDS011;63966;47.914;22.266;2023-12-20T08:15:02;15.77;;;6.10;;
75386;SDS011;63966;47.914;22.266;2023-12-20T08:18:06;18.77;;;7.97;;
75386;SDS011;63966;47.914;22.266;2023-12-20T08:21:11;18.17;;;7.90;;
75386;SDS011;63966;47.914;22.266;2023-12-20T08:24:15;18.23;;;8.27;;
75386;SDS011;63966;47.914;22.266;2023-12-20T08:27:20;21.15;;;9.45;;
75386;SDS011;63966;47.914;22.266;2023-12-20T08:30:24;22.08;;;9.30;;
75386;SDS011;63966;47.914;22.266;2023-12-20T08:33:27;19.83;;;8.80;;
75386;SDS011;63966;47.914;22.266;2023-12-20T08:36:36;19.85;;;8.90;;
75386;SDS011;63966;47.914;22.266;2023-12-20T08:39:39;20.52;;;9.07;;
75386;SDS011;63966;47.914;22.266;2023-12-20T08:42:47;17.60;;;8.18;;
75386;SDS011;63966;47.914;22.266;2023-12-20T08:45:51;16.08;;;8.02;;
75386;SDS011;63966;47.914;22.266;2023-12-20T08:48:54;20.50;;;9.40;;
75386;SDS011;63966;47.914;22.266;2023-12-20T08:51:59;22.95;;;9.85;;
75386;SDS011;63966;47.914;22.266;2023-12-20T08:55:03;24.38;;;10.38;;
75386;SDS011;63966;47.914;22.266;2023-12-20T08:58:07;21.83;;;10.52;;
75386;SDS011;63966;47.914;22.266;2023-12-20T09:01:11;29.13;;;11.25;;
75386;SDS011;63966;47.914;22.266;2023-12-20T09:04:15;24.27;;;10.53;;
75386;SDS011;63966;47.914;22.266;2023-12-20T09:10:29;21.63;;;10.75;;
75386;SDS011;63966;47.914;22.266;2023-12-20T09:13:33;21.10;;;10.13;;
75386;SDS011;63966;47.914;22.266;2023-12-20T09:16:37;20.65;;;9.90;;
75386;SDS011;63966;47.914;22.266;2023-12-20T09:19:40;22.20;;;10.17;;
75386;SDS011;63966;47.914;22.266;2023-12-20T09:22:46;23.70;;;10.52;;
75386;SDS011;63966;47.914;22.266;2023-12-20T09:25:49;26.95;;;11.10;;
75386;SDS011;63966;47.914;22.266;2023-12-20T09:28:57;27.65;;;12.35;;
75386;SDS011;63966;47.914;22.266;2023-12-20T09:32:03;25.58;;;12.27;;
75386;SDS011;63966;47.914;22.266;2023-12-20T09:35:07;30.23;;;13.57;;
75386;SDS011;63966;47.914;22.266;2023-12-20T09:38:11;33.42;;;14.68;;
75386;SDS011;63966;47.914;22.266;2023-12-20T09:41:16;28.33;;;13.35;;
75386;SDS011;63966;47.914;22.266;2023-12-20T09:44:20;26.45;;;12.73;;
75386;SDS011;63966;47.914;22.266;2023-12-20T09:47:25;24.33;;;12.25;;
75386;SDS011;63966;47.914;22.266;2023-12-20T09:50:30;25.00;;;11.60;;
75386;SDS011;63966;47.914;22.266;2023-12-20T09:53:35;23.00;;;10.57;;
75386;SDS011;63966;47.914;22.266;2023-12-20T09:56:40;22.15;;;11.07;;
75386;SDS011;63966;47.914;22.266;2023-12-20T09:59:47;24.52;;;11.07;;
75386;SDS011;63966;47.914;22.266;2023-12-20T10:02:54;22.92;;;11.40;;
75386;SDS011;63966;47.914;22.266;2023-12-20T10:06:18;24.10;;;11.87;;
75386;SDS011;63966;47.914;22.266;2023-12-20T10:09:22;22.02;;;11.05;;
75386;SDS011;63966;47.914;22.266;2023-12-20T10:12:26;21.13;;;10.60;;
75386;SDS011;63966;47.914;22.266;2023-12-20T10:15:30;24.00;;;11.90;;
75386;SDS011;63966;47.914;22.266;2023-12-20T10:18:37;24.77;;;12.05;;
75386;SDS011;63966;47.914;22.266;2023-12-20T10:21:41;22.07;;;11.13;;
75386;SDS011;63966;47.914;22.266;2023-12-20T10:24:45;22.20;;;12.00;;
75386;SDS011;63966;47.914;22.266;2023-12-20T10:28:10;24.10;;;11.43;;
75386;SDS011;63966;47.914;22.266;2023-12-20T10:34:49;28.58;;;13.18;;
75386;SDS011;63966;47.914;22.266;2023-12-20T10:37:56;26.93;;;12.93;;
75386;SDS011;63966;47.914;22.266;2023-12-20T10:41:04;26.67;;;12.52;;
75386;SDS011;63966;47.914;22.266;2023-12-20T10:44:10;28.73;;;13.65;;
75386;SDS011;63966;47.914;22.266;2023-12-20T10:47:15;26.02;;;13.77;;
75386;SDS011;63966;47.914;22.266;2023-12-20T10:50:19;30.15;;;13.68;;
75386;SDS011;63966;47.914;22.266;2023-12-20T10:53:24;28.97;;;14.90;;
75386;SDS011;63966;47.914;22.266;2023-12-20T10:56:29;29.43;;;14.90;;
75386;SDS011;63966;47.914;22.266;2023-12-20T10:59:36;30.33;;;16.55;;
75386;SDS011;63966;47.914;22.266;2023-12-20T11:02:40;29.63;;;15.27;;
75386;SDS011;63966;47.914;22.266;2023-12-20T11:09:38;21.83;;;10.73;;
75386;SDS011;63966;47.914;22.266;2023-12-20T11:12:53;24.65;;;11.85;;
75386;SDS011;63966;47.914;22.266;2023-12-20T11:16:14;23.00;;;11.18;;
75386;SDS011;63966;47.914;22.266;2023-12-20T11:19:18;23.13;;;10.85;;
75386;SDS011;63966;47.914;22.266;2023-12-20T11:22:22;23.70;;;11.48;;
75386;SDS011;63966;47.914;22.266;2023-12-20T11:25:33;22.07;;;11.30;;
75386;SDS011;63966;47.914;22.266;2023-12-20T11:28:49;29.95;;;14.02;;
75386;SDS011;63966;47.914;22.266;2023-12-20T11:31:54;26.67;;;13.85;;
75386;SDS011;63966;47.914;22.266;2023-12-20T11:34:58;27.27;;;13.27;;
75386;SDS011;63966;47.914;22.266;2023-12-20T11:38:03;26.88;;;13.07;;
75386;SDS011;63966;47.914;22.266;2023-12-20T11:41:09;29.10;;;13.03;;
75386;SDS011;63966;47.914;22.266;2023-12-20T11:44:14;24.33;;;12.37;;
75386;SDS011;63966;47.914;22.266;2023-12-20T11:47:20;20.88;;;10.90;;
75386;SDS011;63966;47.914;22.266;2023-12-20T11:50:24;22.33;;;11.43;;
75386;SDS011;63966;47.914;22.266;2023-12-20T11:53:29;26.77;;;12.50;;
75386;SDS011;63966;47.914;22.266;2023-12-20T11:56:36;23.43;;;11.90;;
75386;SDS011;63966;47.914;22.266;2023-12-20T11:59:39;23.60;;;12.07;;
75386;SDS011;63966;47.914;22.266;2023-12-20T12:02:43;26.52;;;11.65;;
75386;SDS011;63966;47.914;22.266;2023-12-20T12:05:57;20.92;;;11.07;;
75386;SDS011;63966;47.914;22.266;2023-12-20T12:09:01;20.38;;;10.07;;
75386;SDS011;63966;47.914;22.266;2023-12-20T12:12:06;22.60;;;11.73;;
75386;SDS011;63966;47.914;22.266;2023-12-20T12:15:14;22.00;;;11.40;;
75386;SDS011;63966;47.914;22.266;2023-12-20T12:18:17;27.08;;;12.07;;
75386;SDS011;63966;47.914;22.266;2023-12-20T12:21:22;21.65;;;10.77;;
75386;SDS011;63966;47.914;22.266;2023-12-20T12:24:34;26.45;;;12.80;;
75386;SDS011;63966;47.914;22.266;2023-12-20T12:27:39;22.90;;;12.20;;
75386;SDS011;63966;47.914;22.266;2023-12-20T12:30:55;26.07;;;12.87;;
75386;SDS011;63966;47.914;22.266;2023-12-20T12:34:00;21.05;;;11.23;;
75386;SDS011;63966;47.914;22.266;2023-12-20T12:37:04;25.63;;;14.23;;
75386;SDS011;63966;47.914;22.266;2023-12-20T12:40:09;24.08;;;12.77;;
75386;SDS011;63966;47.914;22.266;2023-12-20T12:43:14;22.63;;;13.27;;
75386;SDS011;63966;47.914;22.266;2023-12-20T12:46:17;27.90;;;14.43;;
75386;SDS011;63966;47.914;22.266;2023-12-20T12:49:21;27.50;;;14.82;;
75386;SDS011;63966;47.914;22.266;2023-12-20T12:52:25;27.80;;;15.27;;
75386;SDS011;63966;47.914;22.266;2023-12-20T12:55:29;29.85;;;15.80;;
75386;SDS011;63966;47.914;22.266;2023-12-20T12:58:33;26.23;;;14.93;;
75386;SDS011;63966;47.914;22.266;2023-12-20T13:01:36;26.70;;;15.80;;
75386;SDS011;63966;47.914;22.266;2023-12-20T13:04:42;29.45;;;15.55;;
75386;SDS011;63966;47.914;22.266;2023-12-20T13:07:45;31.23;;;16.70;;
75386;SDS011;63966;47.914;22.266;2023-12-20T13:10:50;30.45;;;16.20;;
75386;SDS011;63966;47.914;22.266;2023-12-20T13:13:54;27.30;;;15.23;;
75386;SDS011;63966;47.914;22.266;2023-12-20T13:16:57;26.53;;;16.20;;
75386;SDS011;63966;47.914;22.266;2023-12-20T13:20:01;33.20;;;17.90;;
75386;SDS011;63966;47.914;22.266;2023-12-20T13:23:05;38.75;;;20.35;;
75386;SDS011;63966;47.914;22.266;2023-12-20T13:26:09;31.05;;;16.73;;
75386;SDS011;63966;47.914;22.266;2023-12-20T13:29:12;29.90;;;16.60;;
75386;SDS011;63966;47.914;22.266;2023-12-20T13:32:16;33.60;;;18.27;;
75386;SDS011;63966;47.914;22.266;2023-12-20T13:35:22;38.15;;;19.27;;
75386;SDS011;63966;47.914;22.266;2023-12-20T13:38:26;36.70;;;19.25;;
75386;SDS011;63966;47.914;22.266;2023-12-20T13:41:30;33.40;;;18.90;;
75386;SDS011;63966;47.914;22.266;2023-12-20T13:44:34;36.37;;;18.83;;
75386;SDS011;63966;47.914;22.266;2023-12-20T13:47:37;33.40;;;18.93;;
75386;SDS011;63966;47.914;22.266;2023-12-20T13:50:41;39.40;;;21.13;;
75386;SDS011;63966;47.914;22.266;2023-12-20T13:53:44;48.80;;;24.52;;
75386;SDS011;63966;47.914;22.266;2023-12-20T13:56:48;42.63;;;21.08;;
75386;SDS011;63966;47.914;22.266;2023-12-20T14:00:10;38.50;;;21.30;;
75386;SDS011;63966;47.914;22.266;2023-12-20T14:03:17;53.30;;;28.97;;
75386;SDS011;63966;47.914;22.266;2023-12-20T14:06:22;42.15;;;22.60;;
75386;SDS011;63966;47.914;22.266;2023-12-20T14:09:26;46.42;;;23.90;;
75386;SDS011;63966;47.914;22.266;2023-12-20T14:12:29;47.15;;;24.10;;
75386;SDS011;63966;47.914;22.266;2023-12-20T14:15:34;49.60;;;23.90;;
75386;SDS011;63966;47.914;22.266;2023-12-20T14:18:39;55.83;;;25.30;;
75386;SDS011;63966;47.914;22.266;2023-12-20T14:21:43;63.75;;;28.95;;
75386;SDS011;63966;47.914;22.266;2023-12-20T14:24:47;62.03;;;27.30;;
75386;SDS011;63966;47.914;22.266;2023-12-20T14:27:51;86.78;;;29.67;;
75386;SDS011;63966;47.914;22.266;2023-12-20T14:30:54;72.05;;;27.67;;
75386;SDS011;63966;47.914;22.266;2023-12-20T14:33:59;78.68;;;30.85;;
75386;SDS011;63966;47.914;22.266;2023-12-20T14:37:06;66.53;;;27.70;;
75386;SDS011;63966;47.914;22.266;2023-12-20T14:40:09;55.87;;;22.33;;
75386;SDS011;63966;47.914;22.266;2023-12-20T14:43:18;89.15;;;31.52;;
75386;SDS011;63966;47.914;22.266;2023-12-20T14:46:21;54.97;;;21.67;;
75386;SDS011;63966;47.914;22.266;2023-12-20T14:49:25;76.97;;;28.83;;
75386;SDS011;63966;47.914;22.266;2023-12-20T14:52:29;90.40;;;28.77;;
75386;SDS011;63966;47.914;22.266;2023-12-20T14:55:33;77.50;;;23.77;;
75386;SDS011;63966;47.914;22.266;2023-12-20T14:58:37;73.72;;;26.95;;
75386;SDS011;63966;47.914;22.266;2023-12-20T15:01:41;75.88;;;24.08;;
75386;SDS011;63966;47.914;22.266;2023-12-20T15:04:46;82.73;;;27.70;;
75386;SDS011;63966;47.914;22.266;2023-12-20T15:07:49;95.90;;;29.75;;
75386;SDS011;63966;47.914;22.266;2023-12-20T15:10:53;91.00;;;27.85;;
75386;SDS011;63966;47.914;22.266;2023-12-20T15:13:56;118.97;;;33.80;;
75386;SDS011;63966;47.914;22.266;2023-12-20T15:17:02;86.67;;;28.70;;
75386;SDS011;63966;47.914;22.266;2023-12-20T15:20:07;86.55;;;28.88;;
75386;SDS011;63966;47.914;22.266;2023-12-20T15:23:14;86.25;;;28.30;;
75386;SDS011;63966;47.914;22.266;2023-12-20T15:26:19;89.22;;;29.85;;
75386;SDS011;63966;47.914;22.266;2023-12-20T15:29:22;91.32;;;30.77;;
75386;SDS011;63966;47.914;22.266;2023-12-20T15:32:26;80.78;;;28.50;;
75386;SDS011;63966;47.914;22.266;2023-12-20T15:35:30;82.65;;;26.83;;
75386;SDS011;63966;47.914;22.266;2023-12-20T15:38:33;64.13;;;23.63;;
75386;SDS011;63966;47.914;22.266;2023-12-20T15:41:40;69.57;;;24.73;;
75386;SDS011;63966;47.914;22.266;2023-12-20T15:44:44;72.40;;;25.38;;
75386;SDS011;63966;47.914;22.266;2023-12-20T15:47:47;76.75;;;26.38;;
75386;SDS011;63966;47.914;22.266;2023-12-20T15:50:51;95.80;;;31.15;;
75386;SDS011;63966;47.914;22.266;2023-12-20T15:53:55;99.00;;;31.27;;
75386;SDS011;63966;47.914;22.266;2023-12-20T15:56:59;70.63;;;25.02;;
75386;SDS011;63966;47.914;22.266;2023-12-20T16:00:03;82.45;;;26.60;;
75386;SDS011;63966;47.914;22.266;2023-12-20T16:03:10;79.57;;;28.13;;
75386;SDS011;63966;47.914;22.266;2023-12-20T16:06:26;78.88;;;26.65;;
75386;SDS011;63966;47.914;22.266;2023-12-20T16:09:30;76.53;;;26.83;;
75386;SDS011;63966;47.914;22.266;2023-12-20T16:12:33;77.85;;;28.88;;
75386;SDS011;63966;47.914;22.266;2023-12-20T16:15:37;64.60;;;24.50;;
75386;SDS011;63966;47.914;22.266;2023-12-20T16:18:41;70.25;;;22.98;;
75386;SDS011;63966;47.914;22.266;2023-12-20T16:21:44;70.87;;;24.30;;
75386;SDS011;63966;47.914;22.266;2023-12-20T16:24:48;69.93;;;22.27;;
75386;SDS011;63966;47.914;22.266;2023-12-20T16:27:51;71.93;;;22.50;;
75386;SDS011;63966;47.914;22.266;2023-12-20T16:30:55;63.38;;;22.05;;
75386;SDS011;63966;47.914;22.266;2023-12-20T16:33:59;65.10;;;20.67;;
75386;SDS011;63966;47.914;22.266;2023-12-20T16:37:08;65.78;;;19.38;;
75386;SDS011;63966;47.914;22.266;2023-12-20T16:40:12;67.78;;;19.30;;
75386;SDS011;63966;47.914;22.266;2023-12-20T16:43:15;69.10;;;22.60;;
75386;SDS011;63966;47.914;22.266;2023-12-20T16:46:19;63.47;;;20.30;;
75386;SDS011;63966;47.914;22.266;2023-12-20T16:49:23;60.70;;;19.67;;
75386;SDS011;63966;47.914;22.266;2023-12-20T16:52:27;62.13;;;20.33;;
75386;SDS011;63966;47.914;22.266;2023-12-20T16:55:30;68.17;;;23.53;;
75386;SDS011;63966;47.914;22.266;2023-12-20T16:58:35;62.95;;;20.48;;
75386;SDS011;63966;47.914;22.266;2023-12-20T17:01:39;77.75;;;22.65;;
75386;SDS011;63966;47.914;22.266;2023-12-20T17:04:46;71.65;;;22.40;;
75386;SDS011;63966;47.914;22.266;2023-12-20T17:07:51;75.37;;;22.83;;
75386;SDS011;63966;47.914;22.266;2023-12-20T17:10:54;112.30;;;28.10;;
75386;SDS011;63966;47.914;22.266;2023-12-20T17:13:58;79.78;;;22.08;;
75386;SDS011;63966;47.914;22.266;2023-12-20T17:17:02;76.05;;;21.27;;
75386;SDS011;63966;47.914;22.266;2023-12-20T17:20:07;75.10;;;22.38;;
75386;SDS011;63966;47.914;22.266;2023-12-20T17:23:11;78.68;;;23.27;;
75386;SDS011;63966;47.914;22.266;2023-12-20T17:26:14;69.28;;;20.88;;
75386;SDS011;63966;47.914;22.266;2023-12-20T17:29:17;69.67;;;19.63;;
75386;SDS011;63966;47.914;22.266;2023-12-20T17:32:21;68.38;;;19.08;;
75386;SDS011;63966;47.914;22.266;2023-12-20T17:35:24;70.18;;;19.40;;
75386;SDS011;63966;47.914;22.266;2023-12-20T17:38:28;67.63;;;18.77;;
75386;SDS011;63966;47.914;22.266;2023-12-20T17:41:32;61.90;;;19.53;;
75386;SDS011;63966;47.914;22.266;2023-12-20T17:44:37;61.25;;;17.02;;
75386;SDS011;63966;47.914;22.266;2023-12-20T17:47:41;58.47;;;17.27;;
75386;SDS011;63966;47.914;22.266;2023-12-20T17:50:48;65.05;;;20.48;;
75386;SDS011;63966;47.914;22.266;2023-12-20T17:53:51;53.83;;;19.00;;
75386;SDS011;63966;47.914;22.266;2023-12-20T17:56:55;68.45;;;17.63;;